createdAt,value
2022-12-22T00:02:36.188Z,-0.10
2022-12-22T00:05:31.282Z,-0.10
2022-12-22T00:08:16.639Z,-0.10
2022-12-22T00:11:02.378Z,-0.10
2022-12-22T00:13:48.203Z,-0.20
2022-12-22T00:16:33.845Z,-0.10
2022-12-22T00:19:19.963Z,-0.20
2022-12-22T00:22:06.555Z,-0.10
2022-12-22T00:24:51.973Z,-0.10
2022-12-22T00:27:45.776Z,-0.10
2022-12-22T00:30:32.896Z,-0.10
2022-12-22T00:33:19.020Z,-0.10
2022-12-22T00:36:04.419Z,-0.10
2022-12-22T00:38:51.038Z,0.00
2022-12-22T00:41:36.463Z,-0.10
2022-12-22T00:44:22.043Z,-0.10
2022-12-22T00:47:07.285Z,0.00
2022-12-22T00:49:54.825Z,0.00
2022-12-22T00:52:42.143Z,0.00
2022-12-22T00:55:33.665Z,0.00
2022-12-22T00:58:20.477Z,0.00
2022-12-22T01:01:05.821Z,1.30
2022-12-22T01:03:51.286Z,0.00
2022-12-22T01:06:37.117Z,0.00
2022-12-22T01:09:24.175Z,1.00
2022-12-22T01:12:11.013Z,0.00
2022-12-22T01:14:56.332Z,0.00
2022-12-22T01:17:41.685Z,0.00
2022-12-22T01:20:27.749Z,0.00
2022-12-22T01:23:13.247Z,0.00
2022-12-22T01:25:58.510Z,0.90
2022-12-22T01:28:45.759Z,0.00
2022-12-22T01:31:37.059Z,0.10
2022-12-22T01:34:22.530Z,0.10
2022-12-22T01:37:07.892Z,0.10
2022-12-22T01:39:53.207Z,0.10
2022-12-22T01:42:38.655Z,0.10
2022-12-22T01:45:39.557Z,0.10
2022-12-22T01:48:29.487Z,0.20
2022-12-22T01:51:15.434Z,0.10
2022-12-22T01:54:01.333Z,0.20
2022-12-22T01:56:46.655Z,1.10
2022-12-22T01:59:31.892Z,0.10
2022-12-22T02:02:20.423Z,0.10
2022-12-22T02:05:06.935Z,0.10
2022-12-22T02:08:09.691Z,0.10
2022-12-22T02:11:08.193Z,0.10
2022-12-22T02:14:03.748Z,0.20
2022-12-22T02:16:55.664Z,0.20
2022-12-22T02:20:01.002Z,0.20
2022-12-22T02:22:54.218Z,0.20
2022-12-22T02:25:45.452Z,0.20
2022-12-22T02:28:34.084Z,0.20
2022-12-22T02:31:19.531Z,0.30
2022-12-22T02:34:05.004Z,0.20
2022-12-22T02:36:57.904Z,1.50
2022-12-22T02:39:53.777Z,0.30
2022-12-22T02:42:50.099Z,0.30
2022-12-22T02:45:46.680Z,0.30
2022-12-22T02:48:39.091Z,0.30
2022-12-22T02:51:28.548Z,1.60
2022-12-22T02:54:15.455Z,0.40
2022-12-22T02:57:02.730Z,0.40
2022-12-22T02:59:48.298Z,0.40
2022-12-22T03:02:35.428Z,0.40
2022-12-22T03:05:20.976Z,0.40
2022-12-22T03:08:08.708Z,0.40
2022-12-22T03:10:54.239Z,0.40
2022-12-22T03:13:39.531Z,0.50
2022-12-22T03:16:25.804Z,0.50
2022-12-22T03:19:12.705Z,0.50
2022-12-22T03:21:58.124Z,1.10
2022-12-22T03:24:43.579Z,0.50
2022-12-22T03:27:11.528Z,0.60
2022-12-22T03:29:39.954Z,0.60
2022-12-22T03:32:08.046Z,0.60
2022-12-22T03:34:37.420Z,0.60
2022-12-22T03:37:05.556Z,0.60
2022-12-22T03:39:33.508Z,2.10
2022-12-22T03:42:18.939Z,0.60
2022-12-22T03:45:04.343Z,0.60
2022-12-22T03:47:32.433Z,0.60
2022-12-22T03:50:01.940Z,0.70
2022-12-22T03:52:29.900Z,2.50
2022-12-22T03:54:57.849Z,1.90
2022-12-22T03:57:25.825Z,0.60
2022-12-22T03:59:53.831Z,0.70
2022-12-22T04:02:21.814Z,0.70
2022-12-22T04:04:49.888Z,0.60
2022-12-22T04:07:19.233Z,1.70
2022-12-22T04:10:01.141Z,0.60
2022-12-22T04:12:57.766Z,0.70
2022-12-22T04:15:45.701Z,1.50
2022-12-22T04:18:33.856Z,1.70
2022-12-22T04:21:21.825Z,0.80
2022-12-22T04:24:12.595Z,0.60
2022-12-22T04:27:00.685Z,1.60
2022-12-22T04:29:28.694Z,0.60
2022-12-22T04:31:56.664Z,0.60
2022-12-22T04:34:24.840Z,0.60
2022-12-22T04:36:52.865Z,0.60
2022-12-22T04:39:22.233Z,0.70
2022-12-22T04:41:50.260Z,1.80
2022-12-22T04:44:18.229Z,0.70
2022-12-22T04:46:46.819Z,1.60
2022-12-22T04:49:14.804Z,0.70
2022-12-22T04:51:42.728Z,1.50
2022-12-22T04:54:10.753Z,1.50
2022-12-22T04:56:40.244Z,0.70
2022-12-22T04:59:08.358Z,0.70
2022-12-22T05:01:36.418Z,0.70
2022-12-22T05:04:04.473Z,0.70
2022-12-22T05:06:32.448Z,0.70
2022-12-22T05:09:00.543Z,0.70
2022-12-22T05:11:28.733Z,1.70
2022-12-22T05:14:02.166Z,1.60
2022-12-22T05:16:34.893Z,1.70
2022-12-22T05:19:03.131Z,1.60
2022-12-22T05:21:31.024Z,0.70
2022-12-22T05:24:00.129Z,0.70
2022-12-22T05:26:28.280Z,0.70
2022-12-22T05:28:57.692Z,0.70
2022-12-22T05:31:26.800Z,1.70
2022-12-22T05:33:54.945Z,0.70
2022-12-22T05:36:22.850Z,0.70
2022-12-22T05:38:50.859Z,0.70
2022-12-22T05:41:18.860Z,0.80
2022-12-22T05:43:46.801Z,0.80
2022-12-22T05:46:16.415Z,0.70
2022-12-22T05:48:44.395Z,0.70
2022-12-22T05:51:12.373Z,0.70
2022-12-22T05:53:41.030Z,0.70
2022-12-22T05:56:09.861Z,1.00
2022-12-22T05:58:39.771Z,1.80
2022-12-22T06:01:08.327Z,0.70
2022-12-22T06:03:37.806Z,0.70
2022-12-22T06:06:06.362Z,0.80
2022-12-22T06:08:34.361Z,0.90
2022-12-22T06:11:02.347Z,2.10
2022-12-22T06:13:30.370Z,2.20
2022-12-22T06:15:58.353Z,1.30
2022-12-22T06:18:26.323Z,2.30
2022-12-22T06:20:55.672Z,2.60
2022-12-22T06:23:24.166Z,2.10
2022-12-22T06:25:56.361Z,2.10
2022-12-22T06:28:24.607Z,2.90
2022-12-22T06:30:52.793Z,2.30
2022-12-22T06:33:21.054Z,2.30
2022-12-22T06:35:55.638Z,2.40
2022-12-22T06:38:28.071Z,3.10
2022-12-22T06:40:56.123Z,2.70
2022-12-22T06:43:23.098Z,2.40
2022-12-22T06:45:51.247Z,3.10
2022-12-22T06:48:19.343Z,2.90
2022-12-22T06:50:47.353Z,2.30
2022-12-22T06:53:15.561Z,3.40
2022-12-22T06:55:44.872Z,2.50
2022-12-22T06:58:12.959Z,2.20
2022-12-22T07:00:41.037Z,2.20
2022-12-22T07:03:09.089Z,2.40
2022-12-22T07:05:37.497Z,2.80
2022-12-22T07:08:08.751Z,3.10
2022-12-22T07:10:55.152Z,2.70
2022-12-22T07:13:24.972Z,2.80
2022-12-22T07:16:00.166Z,3.00
2022-12-22T07:18:29.701Z,3.20
2022-12-22T07:20:57.819Z,3.20
2022-12-22T07:23:26.149Z,3.30
2022-12-22T07:25:54.227Z,3.50
2022-12-22T07:28:22.264Z,3.40
2022-12-22T07:30:52.617Z,3.40
2022-12-22T07:33:21.470Z,3.40
2022-12-22T07:35:49.528Z,3.30
2022-12-22T07:38:17.458Z,3.40
2022-12-22T07:40:51.575Z,3.40
2022-12-22T07:43:18.965Z,3.40
2022-12-22T07:45:47.128Z,3.50
2022-12-22T07:48:33.955Z,3.50
2022-12-22T07:51:05.162Z,3.60
2022-12-22T07:53:33.947Z,3.80
2022-12-22T07:56:04.334Z,3.90
2022-12-22T07:58:32.300Z,4.10
2022-12-22T08:01:01.154Z,4.10
2022-12-22T08:03:30.565Z,4.30
2022-12-22T08:05:58.574Z,4.50
2022-12-22T08:08:26.666Z,4.60
2022-12-22T08:10:54.807Z,4.50
2022-12-22T08:13:22.973Z,4.60
2022-12-22T08:15:51.106Z,4.50
2022-12-22T08:18:19.212Z,4.50
2022-12-22T08:20:51.858Z,4.50
2022-12-22T08:23:19.872Z,6.40
2022-12-22T08:25:52.304Z,4.70
2022-12-22T08:28:20.366Z,4.50
2022-12-22T08:30:49.117Z,4.60
2022-12-22T08:33:17.102Z,4.60
2022-12-22T08:35:45.549Z,4.60
2022-12-22T08:38:15.782Z,4.60
2022-12-22T08:40:45.912Z,4.70
2022-12-22T08:43:14.750Z,4.70
2022-12-22T08:45:43.827Z,4.60
2022-12-22T08:48:12.065Z,4.70
2022-12-22T08:50:40.153Z,4.70
2022-12-22T08:53:29.670Z,5.00
2022-12-22T08:55:59.138Z,5.00
2022-12-22T08:58:27.169Z,5.20
2022-12-22T09:00:55.192Z,5.30
2022-12-22T09:03:23.315Z,5.30
2022-12-22T09:05:51.326Z,5.30
2022-12-22T09:08:19.328Z,5.40
2022-12-22T09:10:47.281Z,5.50
2022-12-22T09:13:17.687Z,5.50
2022-12-22T09:15:45.684Z,6.40
2022-12-22T09:18:13.688Z,6.10
2022-12-22T09:20:41.720Z,6.20
2022-12-22T09:23:09.660Z,6.30
2022-12-22T09:25:37.710Z,6.10
2022-12-22T09:28:08.529Z,6.40
2022-12-22T09:30:38.162Z,7.20
2022-12-22T09:33:06.148Z,7.00
2022-12-22T09:35:34.138Z,7.00
2022-12-22T09:38:02.055Z,7.30
2022-12-22T09:40:30.030Z,7.60
2022-12-22T09:42:59.532Z,7.70
2022-12-22T09:45:27.527Z,7.90
2022-12-22T09:47:57.134Z,8.10
2022-12-22T09:50:27.404Z,8.30
2022-12-22T09:52:58.732Z,8.50
2022-12-22T09:55:40.190Z,8.50
2022-12-22T09:58:26.152Z,8.50
2022-12-22T10:01:02.176Z,8.40
2022-12-22T10:03:41.379Z,8.40
2022-12-22T10:06:14.439Z,8.30
2022-12-22T10:08:42.513Z,8.30
2022-12-22T10:11:15.182Z,8.30
2022-12-22T10:13:43.754Z,8.20
2022-12-22T10:16:19.786Z,8.00
2022-12-22T10:18:59.254Z,8.00
2022-12-22T10:21:27.741Z,8.10
2022-12-22T10:23:55.911Z,8.20
2022-12-22T10:26:28.787Z,8.50
2022-12-22T10:29:01.206Z,8.70
2022-12-22T10:31:31.413Z,8.90
2022-12-22T10:34:15.009Z,9.20
2022-12-22T10:36:47.776Z,9.60
2022-12-22T10:39:22.115Z,9.40
2022-12-22T10:41:51.782Z,9.50
2022-12-22T10:44:22.976Z,9.40
2022-12-22T10:46:52.986Z,9.50
2022-12-22T10:49:25.130Z,9.10
2022-12-22T10:51:55.430Z,9.20
2022-12-22T10:54:28.580Z,9.30
2022-12-22T10:57:05.162Z,10.10
2022-12-22T10:59:34.036Z,9.10
2022-12-22T11:02:26.987Z,9.00
2022-12-22T11:05:02.186Z,9.00
2022-12-22T11:07:33.243Z,9.30
2022-12-22T11:10:01.345Z,9.80
2022-12-22T11:12:37.506Z,10.10
2022-12-22T11:15:12.236Z,10.00
2022-12-22T11:17:48.792Z,9.80
2022-12-22T11:20:38.353Z,9.80
2022-12-22T11:23:15.071Z,9.70
2022-12-22T11:25:52.484Z,9.80
2022-12-22T11:28:33.167Z,9.80
2022-12-22T11:31:14.525Z,9.90
2022-12-22T11:33:53.041Z,9.90
2022-12-22T11:36:29.433Z,9.80
2022-12-22T11:39:01.831Z,9.60
2022-12-22T11:41:52.630Z,9.40
2022-12-22T11:44:42.630Z,9.10
2022-12-22T11:47:21.067Z,8.90
2022-12-22T11:50:58.271Z,8.80
2022-12-22T11:53:47.503Z,8.60
2022-12-22T11:56:23.502Z,8.50
2022-12-22T11:59:09.168Z,8.30
2022-12-22T12:01:53.220Z,8.10
2022-12-22T12:04:42.038Z,7.90
2022-12-22T12:07:26.941Z,7.80
2022-12-22T12:10:08.166Z,7.70
2022-12-22T12:12:45.787Z,7.70
2022-12-22T12:15:24.797Z,7.60
2022-12-22T12:18:18.051Z,7.60
2022-12-22T12:20:58.768Z,7.60
2022-12-22T12:23:51.164Z,7.70
2022-12-22T12:26:25.596Z,7.70
2022-12-22T12:29:07.539Z,8.70
2022-12-22T12:31:43.423Z,7.70
2022-12-22T12:34:16.110Z,7.70
2022-12-22T12:36:49.683Z,7.70
2022-12-22T12:39:25.077Z,7.80
2022-12-22T12:42:00.144Z,7.70
2022-12-22T12:44:29.887Z,7.70
2022-12-22T12:47:07.111Z,7.70
2022-12-22T12:50:06.863Z,7.70
2022-12-22T12:53:15.365Z,7.60
2022-12-22T12:56:05.889Z,7.60
2022-12-22T12:58:53.756Z,7.60
2022-12-22T13:01:56.983Z,7.60
2022-12-22T13:05:13.951Z,7.70
2022-12-22T13:08:27.732Z,7.70
2022-12-22T13:12:10.541Z,7.70
2022-12-22T13:14:53.729Z,7.60
2022-12-22T13:17:43.541Z,7.60
2022-12-22T13:20:16.810Z,7.60
2022-12-22T13:22:45.483Z,7.60
2022-12-22T13:25:17.456Z,7.70
2022-12-22T13:27:45.772Z,7.80
2022-12-22T13:30:17.402Z,7.90
2022-12-22T13:32:49.579Z,7.90
2022-12-22T13:35:43.034Z,8.10
2022-12-22T13:38:28.148Z,9.70
2022-12-22T13:40:57.179Z,8.90
2022-12-22T13:43:27.649Z,8.10
2022-12-22T13:45:57.248Z,8.10
2022-12-22T13:48:35.926Z,8.20
2022-12-22T13:51:13.310Z,9.30
2022-12-22T13:56:39.229Z,8.00
2022-12-22T13:59:28.761Z,8.00
2022-12-22T14:02:00.750Z,8.00
2022-12-22T14:04:31.255Z,7.90
2022-12-22T14:07:10.558Z,8.80
2022-12-22T14:09:38.684Z,8.30
2022-12-22T14:12:13.738Z,8.10
2022-12-22T14:14:44.354Z,8.00
2022-12-22T14:17:21.605Z,8.00
2022-12-22T14:19:53.551Z,7.90
2022-12-22T14:22:24.454Z,7.90
2022-12-22T14:24:56.214Z,8.60
2022-12-22T14:27:34.083Z,7.80
2022-12-22T14:30:05.026Z,9.60
2022-12-22T14:32:39.898Z,7.70
2022-12-22T14:35:29.477Z,7.50
2022-12-22T14:38:17.329Z,7.60
2022-12-22T14:40:50.982Z,7.60
2022-12-22T14:43:32.343Z,7.60
2022-12-22T14:46:06.859Z,7.80
2022-12-22T14:48:38.319Z,8.70
2022-12-22T14:51:08.531Z,8.50
2022-12-22T14:53:44.448Z,8.00
2022-12-22T14:56:13.770Z,9.80
2022-12-22T14:58:43.718Z,9.60
2022-12-22T15:01:19.436Z,8.10
2022-12-22T15:03:59.400Z,8.50
2022-12-22T15:06:38.531Z,8.20
2022-12-22T15:10:03.779Z,8.10
2022-12-22T15:12:17.996Z,8.00
2022-12-22T15:14:48.923Z,8.00
2022-12-22T15:17:22.681Z,7.90
2022-12-22T15:19:51.678Z,7.90
2022-12-22T15:22:20.986Z,7.70
2022-12-22T15:24:48.908Z,7.60
2022-12-22T15:27:16.878Z,7.70
2022-12-22T15:29:44.792Z,7.70
2022-12-22T15:32:13.548Z,7.60
2022-12-22T15:34:41.737Z,7.60
2022-12-22T15:37:13.026Z,8.10
2022-12-22T15:39:42.447Z,7.60
2022-12-22T15:42:10.501Z,7.50
2022-12-22T15:44:39.349Z,7.50
2022-12-22T15:47:10.721Z,7.40
2022-12-22T15:49:38.872Z,7.30
2022-12-22T15:52:07.846Z,7.30
2022-12-22T15:54:37.244Z,7.30
2022-12-22T15:57:06.715Z,8.10
2022-12-22T15:59:34.656Z,7.60
2022-12-22T16:02:02.698Z,7.50
2022-12-22T16:04:31.201Z,7.60
2022-12-22T16:07:00.459Z,7.60
2022-12-22T16:09:38.122Z,7.50
2022-12-22T16:12:15.662Z,7.50
2022-12-22T16:14:49.967Z,7.60
2022-12-22T16:17:20.532Z,7.60
2022-12-22T16:19:48.568Z,7.50
2022-12-22T16:22:19.541Z,7.70
2022-12-22T16:24:49.777Z,7.40
2022-12-22T16:27:19.166Z,7.50
2022-12-22T16:29:52.524Z,8.30
2022-12-22T16:32:25.403Z,7.40
2022-12-22T16:34:53.838Z,7.50
2022-12-22T16:37:21.832Z,7.50
2022-12-22T16:39:49.806Z,7.60
2022-12-22T16:45:15.465Z,7.60
2022-12-22T16:47:43.535Z,7.60
2022-12-22T16:50:18.495Z,7.50
2022-12-22T16:52:46.732Z,7.40
2022-12-22T16:55:19.879Z,7.40
2022-12-22T16:57:49.706Z,7.60
2022-12-22T17:00:19.970Z,7.40
2022-12-22T17:02:52.042Z,7.40
2022-12-22T17:05:27.250Z,7.60
2022-12-22T17:07:56.740Z,7.50
2022-12-22T17:10:25.853Z,7.80
2022-12-22T17:12:57.796Z,7.00
2022-12-22T17:15:26.860Z,7.70
2022-12-22T17:17:55.457Z,6.00
2022-12-22T17:20:27.329Z,8.40
2022-12-22T17:22:57.671Z,7.50
2022-12-22T17:25:27.472Z,7.60
2022-12-22T17:27:57.263Z,7.60
2022-12-22T17:30:27.110Z,7.50
2022-12-22T17:32:55.360Z,7.30
2022-12-22T17:35:25.255Z,7.40
2022-12-22T17:37:53.494Z,7.30
2022-12-22T17:40:24.581Z,7.30
2022-12-22T17:42:52.616Z,7.30
2022-12-22T17:45:22.046Z,7.30
2022-12-22T17:47:50.100Z,7.30
2022-12-22T17:50:19.945Z,7.40
2022-12-22T17:52:48.656Z,7.30
2022-12-22T17:55:49.885Z,6.60
2022-12-22T17:58:15.542Z,7.20
2022-12-22T18:00:45.622Z,7.10
2022-12-22T18:03:14.626Z,7.00
2022-12-22T18:05:47.033Z,6.90
2022-12-22T18:08:18.174Z,6.90
2022-12-22T18:10:46.970Z,7.80
2022-12-22T18:13:16.742Z,6.90
2022-12-22T18:15:47.399Z,7.10
2022-12-22T18:18:16.782Z,6.90
2022-12-22T18:20:45.599Z,7.00
2022-12-22T18:23:18.551Z,7.10
2022-12-22T18:25:46.552Z,6.80
2022-12-22T18:28:15.868Z,6.70
2022-12-22T18:30:45.890Z,6.60
2022-12-22T18:33:14.478Z,6.60
2022-12-22T18:35:43.415Z,7.30
2022-12-22T18:38:25.817Z,6.60
2022-12-22T18:40:54.282Z,6.60
2022-12-22T18:43:22.378Z,6.70
2022-12-22T18:45:51.765Z,6.80
2022-12-22T18:48:19.741Z,6.50
2022-12-22T18:50:47.861Z,6.60
2022-12-22T18:53:26.711Z,6.60
2022-12-22T18:55:55.486Z,6.50
2022-12-22T18:58:23.878Z,6.60
2022-12-22T19:00:54.658Z,6.50
2022-12-22T19:03:24.512Z,6.50
2022-12-22T19:05:53.231Z,6.40
2022-12-22T19:08:28.696Z,6.30
2022-12-22T19:11:04.824Z,6.30
2022-12-22T19:13:36.819Z,8.20
2022-12-22T19:16:10.754Z,7.20
2022-12-22T19:18:40.217Z,6.10
2022-12-22T19:21:13.378Z,4.30
2022-12-22T19:23:42.580Z,4.70
2022-12-22T19:26:20.807Z,5.90
2022-12-22T19:28:51.799Z,7.90
2022-12-22T19:31:24.403Z,6.40
2022-12-22T19:33:53.394Z,6.10
2022-12-22T19:36:25.880Z,6.10
2022-12-22T19:39:02.576Z,7.20
2022-12-22T19:41:38.780Z,5.10
2022-12-22T19:44:13.530Z,6.10
2022-12-22T19:46:43.791Z,4.90
2022-12-22T19:49:19.748Z,6.60
2022-12-22T19:51:48.958Z,8.10
2022-12-22T19:54:19.838Z,7.80
2022-12-22T19:56:52.385Z,7.70
2022-12-22T19:59:29.853Z,7.00
2022-12-22T20:02:07.956Z,8.10
2022-12-22T20:04:40.498Z,4.00
2022-12-22T20:07:15.031Z,7.70
2022-12-22T20:09:43.755Z,7.50
2022-12-22T20:12:20.196Z,5.10
2022-12-22T20:14:48.671Z,6.30
2022-12-22T20:17:18.310Z,6.10
2022-12-22T20:19:46.978Z,5.90
2022-12-22T20:22:18.053Z,7.40
2022-12-22T20:24:47.385Z,3.70
2022-12-22T20:27:19.594Z,7.40
2022-12-22T20:29:48.118Z,5.10
2022-12-22T20:32:25.468Z,7.30
2022-12-22T20:34:56.619Z,5.10
2022-12-22T20:37:25.823Z,6.20
2022-12-22T20:39:54.672Z,6.50
2022-12-22T20:42:27.758Z,6.10
2022-12-22T20:45:02.747Z,6.30
2022-12-22T20:47:35.425Z,6.60
2022-12-22T20:50:05.042Z,6.70
2022-12-22T20:52:33.992Z,3.90
2022-12-22T20:55:02.859Z,6.30
2022-12-22T20:57:31.687Z,5.00
2022-12-22T21:00:00.805Z,3.30
2022-12-22T21:02:34.020Z,3.70
2022-12-22T21:05:03.466Z,5.00
2022-12-22T21:07:37.487Z,5.00
2022-12-22T21:10:07.601Z,5.00
2022-12-22T21:12:37.722Z,5.00
2022-12-22T21:15:07.597Z,6.50
2022-12-22T21:17:40.877Z,4.80
2022-12-22T21:20:21.009Z,5.70
2022-12-22T21:22:49.813Z,6.70
2022-12-22T21:25:18.865Z,7.40
2022-12-22T21:27:50.449Z,7.50
2022-12-22T21:30:21.129Z,6.60
2022-12-22T21:32:52.293Z,5.20
2022-12-22T21:35:23.771Z,3.90
2022-12-22T21:37:54.108Z,7.20
2022-12-22T21:40:26.822Z,6.90
2022-12-22T21:42:55.596Z,5.20
2022-12-22T21:45:27.341Z,5.20
2022-12-22T21:48:00.804Z,6.00
2022-12-22T21:50:31.076Z,6.60
2022-12-22T21:52:59.287Z,5.30
2022-12-22T21:55:30.366Z,5.10
2022-12-22T21:57:59.294Z,6.90
2022-12-22T22:00:28.542Z,5.20
2022-12-22T22:02:58.623Z,5.20
2022-12-22T22:05:28.765Z,5.20
2022-12-22T22:07:57.749Z,5.20
2022-12-22T22:10:27.573Z,5.30
2022-12-22T22:12:55.681Z,5.30
2022-12-22T22:15:24.860Z,5.30
2022-12-22T22:17:53.024Z,5.30
2022-12-22T22:20:24.088Z,5.40
2022-12-22T22:22:53.244Z,5.50
2022-12-22T22:25:21.992Z,5.50
2022-12-22T22:27:50.850Z,5.50
2022-12-22T22:30:21.255Z,5.50
2022-12-22T22:32:50.273Z,5.50
2022-12-22T22:35:19.547Z,5.60
2022-12-22T22:37:51.616Z,5.50
2022-12-22T22:40:23.188Z,5.50
2022-12-22T22:42:51.284Z,5.50
2022-12-22T22:45:23.312Z,5.40
2022-12-22T22:47:52.252Z,5.40
2022-12-22T22:50:21.080Z,5.30
2022-12-22T22:52:50.753Z,5.20
2022-12-22T22:55:18.952Z,5.70
2022-12-22T22:57:47.175Z,5.80
2022-12-22T23:00:18.343Z,5.90
2022-12-22T23:02:46.744Z,5.80
2022-12-22T23:05:22.241Z,5.70
2022-12-22T23:07:52.333Z,5.60
2022-12-22T23:10:20.592Z,5.60
2022-12-22T23:12:48.720Z,5.60
2022-12-22T23:15:17.111Z,5.50
2022-12-22T23:17:45.218Z,5.40
2022-12-22T23:20:13.560Z,5.60
2022-12-22T23:22:41.733Z,5.50
2022-12-22T23:25:11.543Z,5.60
2022-12-22T23:27:39.690Z,5.60
2022-12-22T23:30:09.239Z,5.60
2022-12-22T23:32:37.373Z,5.50
2022-12-22T23:35:07.153Z,5.60
2022-12-22T23:37:35.308Z,5.60
2022-12-22T23:40:33.301Z,5.60
2022-12-22T23:42:56.842Z,5.90
2022-12-22T23:45:25.722Z,5.90
2022-12-22T23:47:53.780Z,5.90
2022-12-22T23:50:22.404Z,5.90
2022-12-22T23:52:51.687Z,5.90
2022-12-22T23:55:20.226Z,6.00
2022-12-22T23:57:50.046Z,6.00
